x

Settlement Point, Gbi (spgf1) Weather Station

3:00pm - Fri 19th Dec 2014 All times are EST. -5 hours from GMT.

  • Wind
    8mph, 9mph gusts
  • Air Temp 71°f
  • Sea Pressure 1018.3mb
  • Settlement Point, Gbi
  • Settlement Point, Gbi

More Historic Weather Station data

Upgrade to MSW Pro to gain access to the past 30 days of data for over 8000 Wavebouys and Weather Stations around the globe.

Join Pro

Comparision Forecast

View Surf forecast
   
Fri 12/19 3:00pm 8 9 mph 1018.3mb 71f
2:00pm 8 9 mph 1018.5mb 71f
1:00pm 7 9 mph 1019.1mb 71f
12:00pm 8
mph
1020.1mb 71f
11:00am 7 8 mph 1020.6mb 71f
10:00am 8 9 mph 1020.5mb 71f
9:00am 8 9 mph 1020.2mb 71f
8:00am 9 10 mph 1019.6mb 71f
7:00am 9 10 mph 1019.3mb 70f
6:00am 9 10 mph 1019.1mb 70f
5:00am 11 13 mph 1018.8mb 70f
4:00am 7 9 mph 1018.7mb 70f
3:00am 6 7 mph 1018.9mb 70f
2:00am 6
mph
1019.2mb 70f
1:00am 6
mph
1019.4mb 70f
12:00am 6 7 mph 1019.7mb 70f
Thu 12/18 11:00pm 7
mph
1020mb 70f
10:00pm 5 6 mph 1020.3mb 72f
9:00pm 6 8 mph 1020.1mb 72f
8:00pm 9 10 mph 1020.1mb 72f
7:00pm 2 3 mph 1019.2mb 71f
6:00pm 6
mph
1019.4mb 71f
5:00pm 7 9 mph 1019.1mb 72f
4:00pm 8 10 mph 1019mb 73f
3:00pm 15 17 mph 1019.5mb 72f
2:00pm 11 13 mph 1019.5mb 73f
1:00pm 13 14 mph 1020.1mb 73f
12:00pm 15 17 mph 1021.2mb 73f
11:00am 14 15 mph 1022mb 74f
10:00am 11 13 mph 1022mb 74f
9:00am 13 15 mph 1021.4mb 74f
8:00am 16 18 mph 1020.9mb 74f
7:00am 15 16 mph 1020.4mb 73f
6:00am 16 17 mph 1020mb 73f
5:00am 17 20 mph 1019.6mb 73f
4:00am 10 13 mph 1020mb 73f
3:00am 5 6 mph 1020.6mb 70f
2:00am 7 8 mph 1021.1mb 70f
1:00am 6
mph
1021.3mb 69f
12:00am 6 7 mph 1021.4mb 69f
Wed 12/17 11:00pm 7 8 mph 1021.5mb 70f
10:00pm 8 9 mph 1021.7mb 70f
9:00pm 7 8 mph 1021.5mb 71f
8:00pm 8
mph
1021.2mb 71f
7:00pm 5 6 mph 1021.1mb 72f
6:00pm 3 5 mph 1020.5mb 73f
5:00pm 3 5 mph 1020mb 74f
4:00pm 5 6 mph 1020mb 74f
3:00pm 7 9 mph 1020.1mb 74f
2:00pm 6 8 mph 1020.3mb 74f
1:00pm 10 11 mph 1021.4mb 74f
12:00pm 10 11 mph 1022.1mb 74f
11:00am 11 13 mph 1023.3mb 74f
10:00am 10 11 mph 1023.3mb 74f
9:00am 9 11 mph 1022.7mb 74f
8:00am 9 10 mph 1022.3mb 73f
7:00am 8 10 mph 1022.1mb 73f
6:00am 6 7 mph 1021.5mb 72f
5:00am 7
mph
1021.2mb 73f
4:00am 9 10 mph 1021.2mb 73f
3:00am 10 13 mph 1021.4mb 73f
2:00am 8 9 mph 1021.6mb 73f
1:00am 8 10 mph 1022mb 73f
12:00am 3 8 mph 1022.6mb 69f
Tue 12/16 11:00pm 7
mph
1023.1mb 69f
10:00pm 8
mph
1023.1mb 69f
9:00pm 6 7 mph 1022.7mb 69f
8:00pm 7
mph
1022.6mb 69f
7:00pm 6
mph
1022.4mb 70f
6:00pm 3 6 mph 1022mb 71f
5:00pm 5 6 mph 1021.6mb 72f
4:00pm 5 6 mph 1021.3mb 72f
3:00pm 6 7 mph 1021.1mb 71f
2:00pm 6 7 mph 1021.3mb 71f
1:00pm 7 8 mph 1021.9mb 71f
12:00pm 8
mph
1022.8mb 70f
11:00am 7 8 mph 1023.3mb 70f
10:00am 7
mph
1023.5mb 70f
9:00am 7 8 mph 1023.1mb 70f
8:00am 6
mph
1022.5mb 71f
7:00am 6 7 mph 1022.2mb 69f
6:00am 5 6 mph 1021.4mb 69f
5:00am 6
mph
1020.9mb 69f
4:00am 5 6 mph 1020.7mb 69f
3:00am 5
mph
1020.7mb 68f
2:00am 5 6 mph 1020.7mb 68f
1:00am 6
mph
1020.7mb 69f
12:00am 5
mph
1021.1mb 68f
Mon 12/15 11:00pm 3 5 mph 1021.5mb 69f
10:00pm 5
mph
1021.3mb 68f